^^
Saratoga-Weather Station Historical Data
Daily Summary for September 6, 2021 Units:  Metric    English   Both
Daily Weekly Monthly Yearly Custom
  High: Low: Average:
Temperature: 9.2 °C 3.3 °C 6 °C
Dew Point: 7.3 °C 2.7 °C 4.7 °C
Humidity: 97% 75% 91%
Wind Speed: 14.3km/h 0km/h 1.1km/h
Wind Gust: 14.5km/h - -
Wind- - SSW
Pressure: 1030.8 hPa 1025.4 hPa -
Precipitation: 0.0 mm    
Historical Graphs
 
 
Tabular Data for September 6, 2021
Time Temperature Dew Point Pressure Wind Wind Speed Wind Gust Humidity Rainfall Rate (Hourly) solar
00:02 6.9 °C 6 °C 1028.8 hPa Calm     94% 0.0 mm 0 W/m2
00:07 7 °C 6.1 °C 1029.1 hPa SSE 1.4 km/h 3.2 km/h 94% 0.0 mm 0 W/m2
00:12 6.9 °C 6 °C 1029.1 hPa SE 1.4 km/h 3.2 km/h 94% 0.0 mm 0 W/m2
00:17 6.9 °C 6 °C 1029.1 hPa Calm     94% 0.0 mm 0 W/m2
00:23 6.8 °C 5.9 °C 1029.1 hPa Calm   3.2 km/h 94% 0.0 mm 0 W/m2
00:28 6.8 °C 5.9 °C 1029.1 hPa Calm     94% 0.0 mm 0 W/m2
00:33 6.8 °C 5.9 °C 1029.1 hPa Calm     94% 0.0 mm 0 W/m2
00:38 6.8 °C 5.9 °C 1029.1 hPa Calm     94% 0.0 mm 0 W/m2
00:43 6.7 °C 5.8 °C 1029.1 hPa Calm     94% 0.0 mm 0 W/m2
00:48 6.7 °C 5.8 °C 1029.1 hPa Calm     94% 0.0 mm 0 W/m2
00:53 6.7 °C 5.8 °C 1029.1 hPa Calm     94% 0.0 mm 0 W/m2
00:58 6.7 °C 5.8 °C 1029.1 hPa Calm     94% 0.0 mm 0 W/m2
01:03 6.7 °C 5.8 °C 1029.1 hPa Calm     94% 0.0 mm 0 W/m2
01:08 6.6 °C 5.7 °C 1029.1 hPa Calm     94% 0.0 mm 0 W/m2
01:13 6.6 °C 5.7 °C 1029.1 hPa Calm     94% 0.0 mm 0 W/m2
01:18 6.6 °C 5.7 °C 1029.1 hPa Calm     94% 0.0 mm 0 W/m2
01:23 6.6 °C 5.7 °C 1029.1 hPa Calm     94% 0.0 mm 0 W/m2
01:28 6.5 °C 5.6 °C 1029.1 hPa Calm     94% 0.0 mm 0 W/m2
01:33 6.5 °C 5.8 °C 1029.1 hPa Calm     95% 0.0 mm 0 W/m2
01:38 6.4 °C 5.7 °C 1029.1 hPa Calm     95% 0.0 mm 0 W/m2
01:43 6.4 °C 5.5 °C 1029.1 hPa Calm     94% 0.0 mm 0 W/m2
01:48 6.4 °C 5.5 °C 1029.1 hPa Calm     94% 0.0 mm 0 W/m2
01:53 6.4 °C 5.5 °C 1029.1 hPa Calm     94% 0.0 mm 0 W/m2
01:58 6.4 °C 5.5 °C 1029.1 hPa Calm     94% 0.0 mm 0 W/m2
02:03 6.4 °C 5.7 °C 1029.1 hPa WSW 1.4 km/h 1.6 km/h 95% 0.0 mm 0 W/m2
02:08 6.4 °C 5.7 °C 1029.1 hPa Calm     95% 0.0 mm 0 W/m2
02:13 6.4 °C 5.7 °C 1029.1 hPa Calm   1.6 km/h 95% 0.0 mm 0 W/m2
02:18 6.5 °C 5.8 °C 1029.1 hPa Calm   1.6 km/h 95% 0.0 mm 0 W/m2
02:23 6.6 °C 5.9 °C 1029.1 hPa Calm   1.6 km/h 95% 0.0 mm 0 W/m2
02:28 6.7 °C 6 °C 1029.1 hPa Calm     95% 0.0 mm 0 W/m2
02:33 6.7 °C 6 °C 1029.1 hPa Calm   1.6 km/h 95% 0.0 mm 0 W/m2
02:38 6.7 °C 6 °C 1029.1 hPa Calm     95% 0.0 mm 0 W/m2
02:43 6.7 °C 6 °C 1029.1 hPa Calm     95% 0.0 mm 0 W/m2
02:48 6.7 °C 6 °C 1029.1 hPa Calm     95% 0.0 mm 0 W/m2
02:53 6.6 °C 5.9 °C 1028.8 hPa Calm     95% 0.0 mm 0 W/m2
02:58 6.6 °C 5.9 °C 1028.8 hPa Calm     95% 0.0 mm 0 W/m2
03:03 6.5 °C 5.8 °C 1028.8 hPa Calm     95% 0.0 mm 0 W/m2
03:08 6.4 °C 5.7 °C 1029.1 hPa Calm     95% 0.0 mm 0 W/m2
03:13 6.3 °C 5.6 °C 1029.1 hPa Calm     95% 0.0 mm 0 W/m2
03:18 6.2 °C 5.5 °C 1029.1 hPa Calm     95% 0.0 mm 0 W/m2
03:23 6 °C 5.1 °C 1028.8 hPa Calm     94% 0.0 mm 0 W/m2
03:28 5.8 °C 5.1 °C 1029.1 hPa Calm     95% 0.0 mm 0 W/m2
03:33 5.7 °C 4.8 °C 1028.8 hPa Calm     94% 0.0 mm 0 W/m2
03:38 5.5 °C 4.6 °C 1028.8 hPa Calm     94% 0.0 mm 0 W/m2
03:43 5.3 °C 4.4 °C 1028.8 hPa Calm     94% 0.0 mm 0 W/m2
03:48 5.2 °C 4.3 °C 1029.1 hPa Calm     94% 0.0 mm 0 W/m2
03:53 5.1 °C 4.2 °C 1029.1 hPa Calm     94% 0.0 mm 0 W/m2
03:58 4.9 °C 4 °C 1029.1 hPa Calm     94% 0.0 mm 0 W/m2
04:03 4.8 °C 4.1 °C 1029.1 hPa Calm     95% 0.0 mm 0 W/m2
04:08 4.7 °C 3.8 °C 1029.1 hPa Calm     94% 0.0 mm 0 W/m2
04:13 4.7 °C 4 °C 1029.1 hPa Calm     95% 0.0 mm 0 W/m2
04:18 4.7 °C 4 °C 1029.1 hPa Calm     95% 0.0 mm 0 W/m2
04:23 4.8 °C 4.1 °C 1029.1 hPa Calm     95% 0.0 mm 0 W/m2
04:28 4.9 °C 4.2 °C 1029.5 hPa Calm     95% 0.0 mm 0 W/m2
04:33 5 °C 4.4 °C 1029.5 hPa Calm     96% 0.0 mm 0 W/m2
04:38 5.1 °C 4.5 °C 1029.5 hPa Calm     96% 0.0 mm 0 W/m2
04:43 5.2 °C 4.6 °C 1029.5 hPa Calm     96% 0.0 mm 0 W/m2
04:48 5.2 °C 4.6 °C 1029.5 hPa Calm     96% 0.0 mm 0 W/m2
04:53 5.3 °C 4.7 °C 1029.5 hPa Calm     96% 0.0 mm 0 W/m2
04:58 5.4 °C 4.8 °C 1029.5 hPa Calm     96% 0.0 mm 0 W/m2
05:03 5.4 °C 4.8 °C 1029.5 hPa Calm     96% 0.0 mm 0 W/m2
05:08 5.4 °C 4.8 °C 1029.5 hPa Calm     96% 0.0 mm 0 W/m2
05:13 5.5 °C 4.9 °C 1029.5 hPa Calm     96% 0.0 mm 0 W/m2
05:18 5.5 °C 4.9 °C 1029.5 hPa Calm     96% 0.0 mm 0 W/m2
05:23 5.5 °C 4.9 °C 1029.5 hPa Calm     96% 0.0 mm 0 W/m2
05:28 5.5 °C 4.9 °C 1029.5 hPa Calm     96% 0.0 mm 0 W/m2
05:33 5.5 °C 4.9 °C 1029.5 hPa Calm     96% 0.0 mm 0 W/m2
05:38 5.4 °C 4.8 °C 1029.5 hPa Calm     96% 0.0 mm 0 W/m2
05:43 5.3 °C 4.7 °C 1029.5 hPa Calm     96% 0.0 mm 0 W/m2
05:48 5.2 °C 4.6 °C 1029.5 hPa Calm     96% 0.0 mm 0 W/m2
05:53 5.1 °C 4.5 °C 1029.5 hPa Calm     96% 0.0 mm 0 W/m2
05:58 4.9 °C 4.2 °C 1029.5 hPa Calm     95% 0.0 mm 0 W/m2
06:03 4.9 °C 4.3 °C 1029.5 hPa Calm     96% 0.0 mm 0 W/m2
06:08 4.8 °C 4.2 °C 1029.5 hPa Calm     96% 0.0 mm 0 W/m2
06:13 4.8 °C 4.2 °C 1029.5 hPa Calm     96% 0.0 mm 0 W/m2
06:18 4.7 °C 4.1 °C 1029.8 hPa Calm   1.6 km/h 96% 0.0 mm 0 W/m2
06:23 4.7 °C 4.1 °C 1029.5 hPa Calm     96% 0.0 mm 0 W/m2
06:28 4.6 °C 4 °C 1029.5 hPa Calm     96% 0.0 mm 0 W/m2
06:33 4.5 °C 3.9 °C 1029.8 hPa Calm     96% 0.0 mm 0 W/m2
06:38 4.4 °C 3.8 °C 1029.8 hPa Calm     96% 0.0 mm 0 W/m2
06:43 4.3 °C 3.7 °C 1029.8 hPa Calm     96% 0.0 mm 0 W/m2
06:48 4.2 °C 3.6 °C 1029.8 hPa Calm     96% 0.0 mm 0 W/m2
06:53 4.1 °C 3.5 °C 1029.8 hPa Calm     96% 0.0 mm 0 W/m2
06:58 4.1 °C 3.5 °C 1029.8 hPa Calm     96% 0.0 mm 0 W/m2
07:03 4 °C 3.4 °C 1029.8 hPa Calm     96% 0.0 mm 0 W/m2
07:08 3.9 °C 3.3 °C 1029.8 hPa Calm     96% 0.0 mm 0 W/m2
07:13 3.8 °C 3.2 °C 1029.8 hPa Calm     96% 0.0 mm 0 W/m2
07:18 3.8 °C 3.2 °C 1029.8 hPa Calm     96% 0.0 mm 0 W/m2
07:23 3.8 °C 3.2 °C 1029.8 hPa Calm     96% 0.0 mm 0 W/m2
07:28 3.7 °C 3.1 °C 1029.8 hPa Calm     96% 0.0 mm 0 W/m2
07:33 3.6 °C 3 °C 1030.1 hPa Calm     96% 0.0 mm 5 W/m2
07:38 3.6 °C 3 °C 1030.1 hPa Calm     96% 0.0 mm 5 W/m2
07:43 3.5 °C 2.9 °C 1030.1 hPa Calm     96% 0.0 mm 7 W/m2
07:48 3.4 °C 2.8 °C 1030.1 hPa Calm     96% 0.0 mm 11 W/m2
07:53 3.4 °C 2.8 °C 1030.1 hPa Calm     96% 0.0 mm 12 W/m2
07:58 3.3 °C 2.7 °C 1030.1 hPa Calm     96% 0.0 mm 14 W/m2
08:03 3.3 °C 2.7 °C 1030.1 hPa Calm     96% 0.0 mm 16 W/m2
08:08 3.3 °C 2.7 °C 1030.1 hPa Calm     96% 0.0 mm 18 W/m2
08:13 3.3 °C 2.7 °C 1030.1 hPa Calm     96% 0.0 mm 18 W/m2
08:18 3.4 °C 2.8 °C 1030.1 hPa Calm     96% 0.0 mm 21 W/m2
08:24 3.4 °C 2.8 °C 1030.1 hPa Calm     96% 0.0 mm 23 W/m2
08:29 3.4 °C 2.8 °C 1030.5 hPa Calm     96% 0.0 mm 26 W/m2
08:34 3.5 °C 2.9 °C 1030.5 hPa Calm     96% 0.0 mm 28 W/m2
08:39 3.5 °C 2.9 °C 1030.5 hPa Calm     96% 0.0 mm 32 W/m2
08:44 3.6 °C 3 °C 1030.5 hPa Calm     96% 0.0 mm 33 W/m2
08:49 3.6 °C 3 °C 1030.5 hPa Calm     96% 0.0 mm 49 W/m2
08:54 3.8 °C 3.4 °C 1030.5 hPa Calm     97% 0.0 mm 91 W/m2
08:59 3.9 °C 3.5 °C 1030.5 hPa Calm     97% 0.0 mm 54 W/m2
09:04 4.1 °C 3.7 °C 1030.5 hPa Calm     97% 0.0 mm 77 W/m2
09:09 4.2 °C 3.8 °C 1030.5 hPa Calm     97% 0.0 mm 53 W/m2
09:14 4.3 °C 3.9 °C 1030.5 hPa Calm     97% 0.0 mm 42 W/m2
09:19 4.4 °C 4 °C 1030.8 hPa Calm     97% 0.0 mm 97 W/m2
09:24 4.6 °C 4.2 °C 1030.5 hPa Calm     97% 0.0 mm 49 W/m2
09:29 4.7 °C 4.3 °C 1030.5 hPa Calm   1.6 km/h 97% 0.0 mm 37 W/m2
09:34 4.8 °C 4.4 °C 1030.8 hPa Calm     97% 0.0 mm 56 W/m2
09:39 5 °C 4.6 °C 1030.5 hPa SSE 3.2 km/h 4.8 km/h 97% 0.0 mm 39 W/m2
09:44 5.2 °C 4.8 °C 1030.5 hPa Calm   1.6 km/h 97% 0.0 mm 40 W/m2
09:49 5.3 °C 4.9 °C 1030.5 hPa Calm     97% 0.0 mm 40 W/m2
09:54 5.4 °C 5 °C 1030.8 hPa ESE 1.4 km/h 3.2 km/h 97% 0.0 mm 42 W/m2
09:59 5.6 °C 5.2 °C 1030.8 hPa ESE 1.4 km/h 4.8 km/h 97% 0.0 mm 56 W/m2
10:04 5.6 °C 5.2 °C 1030.5 hPa ESE 3.2 km/h 4.8 km/h 97% 0.0 mm 62 W/m2
10:09 5.7 °C 5.3 °C 1030.5 hPa East 3.2 km/h 3.2 km/h 97% 0.0 mm 49 W/m2
10:14 5.8 °C 5.4 °C 1030.8 hPa East 3.2 km/h 4.8 km/h 97% 0.0 mm 51 W/m2
10:19 5.8 °C 5.4 °C 1030.8 hPa East 3.2 km/h 4.8 km/h 97% 0.0 mm 60 W/m2
10:24 5.9 °C 5.5 °C 1030.8 hPa East 3.2 km/h 4.8 km/h 97% 0.0 mm 86 W/m2
10:29 5.9 °C 5.5 °C 1030.8 hPa East 3.2 km/h 6.4 km/h 97% 0.0 mm 63 W/m2
10:34 5.8 °C 5.4 °C 1030.8 hPa East 4.7 km/h 6.4 km/h 97% 0.0 mm 47 W/m2
10:39 5.8 °C 5.4 °C 1030.8 hPa East 3.2 km/h 4.8 km/h 97% 0.0 mm 42 W/m2
10:44 5.9 °C 5.5 °C 1030.8 hPa East 4.7 km/h 6.4 km/h 97% 0.0 mm 44 W/m2
10:49 6 °C 5.6 °C 1030.8 hPa ESE 4.7 km/h 6.4 km/h 97% 0.0 mm 67 W/m2
10:54 6.1 °C 5.7 °C 1030.5 hPa ESE 4.7 km/h 9.7 km/h 97% 0.0 mm 62 W/m2
10:59 6.3 °C 5.9 °C 1030.5 hPa East 4.7 km/h 6.4 km/h 97% 0.0 mm 125 W/m2
11:04 6.3 °C 5.9 °C 1030.8 hPa ESE 3.2 km/h 4.8 km/h 97% 0.0 mm 54 W/m2
11:09 6.3 °C 5.9 °C 1030.8 hPa Calm   4.8 km/h 97% 0.0 mm 46 W/m2
11:14 6.6 °C 6.2 °C 1030.8 hPa ESE 3.2 km/h 3.2 km/h 97% 0.0 mm 47 W/m2
11:19 6.7 °C 6.3 °C 1030.5 hPa ESE 1.4 km/h 3.2 km/h 97% 0.0 mm 49 W/m2
11:24 6.8 °C 6.4 °C 1030.5 hPa ENE 1.4 km/h 3.2 km/h 97% 0.0 mm 37 W/m2
11:29 6.9 °C 6.5 °C 1030.5 hPa Calm   4.8 km/h 97% 0.0 mm 40 W/m2
11:34 7.2 °C 6.8 °C 1030.5 hPa ENE 3.2 km/h 4.8 km/h 97% 0.0 mm 40 W/m2
11:39 7.4 °C 7 °C 1030.5 hPa East 1.4 km/h 3.2 km/h 97% 0.0 mm 44 W/m2
11:44 7.6 °C 7 °C 1030.5 hPa NE 3.2 km/h 4.8 km/h 96% 0.0 mm 76 W/m2
11:49 7.7 °C 7.1 °C 1030.1 hPa East 6.4 km/h 6.4 km/h 96% 0.0 mm 65 W/m2
11:54 7.9 °C 7.3 °C 1030.1 hPa East 3.2 km/h 6.4 km/h 96% 0.0 mm 76 W/m2
11:59 8.2 °C 7.3 °C 1030.1 hPa Calm   1.6 km/h 94% 0.0 mm 139 W/m2
12:04 8.4 °C 7.3 °C 1030.1 hPa ENE 4.7 km/h 6.4 km/h 93% 0.0 mm 63 W/m2
12:09 8.5 °C 7 °C 1030.1 hPa WSW 3.2 km/h 4.8 km/h 90% 0.0 mm 42 W/m2
12:14 8.5 °C 6.3 °C 1029.8 hPa Calm   3.2 km/h 86% 0.0 mm 62 W/m2
12:19 8.6 °C 5.7 °C 1029.8 hPa WNW 3.2 km/h 9.7 km/h 82% 0.0 mm 47 W/m2
12:24 8.7 °C 5.4 °C 1029.8 hPa WNW 4.7 km/h 6.4 km/h 80% 0.0 mm 40 W/m2
12:29 8.9 °C 5.5 °C 1029.8 hPa WSW 3.2 km/h 4.8 km/h 79% 0.0 mm 39 W/m2
12:34 8.9 °C 5.5 °C 1029.8 hPa West 3.2 km/h 9.7 km/h 79% 0.0 mm 33 W/m2
12:39 8.9 °C 5.5 °C 1029.8 hPa WNW 4.7 km/h 11.3 km/h 79% 0.0 mm 33 W/m2
12:44 9 °C 5.6 °C 1029.8 hPa WSW 6.4 km/h 9.7 km/h 79% 0.0 mm 39 W/m2
12:49 9.1 °C 5.7 °C 1029.8 hPa WSW 6.4 km/h 11.3 km/h 79% 0.0 mm 67 W/m2
12:54 9.1 °C 5.7 °C 1029.8 hPa NW 7.9 km/h 9.7 km/h 79% 0.0 mm 37 W/m2
12:59 9.1 °C 5.3 °C 1029.5 hPa West 4.7 km/h 11.3 km/h 77% 0.0 mm 44 W/m2
13:04 9.1 °C 4.9 °C 1029.5 hPa West 6.4 km/h 12.9 km/h 75% 0.0 mm 130 W/m2
13:09 9.1 °C 4.9 °C 1029.5 hPa West 6.4 km/h 12.9 km/h 75% 0.0 mm 81 W/m2
13:14 9.1 °C 5.1 °C 1029.5 hPa WNW 6.4 km/h 9.7 km/h 76% 0.0 mm 42 W/m2
13:19 9.1 °C 5.1 °C 1029.5 hPa WSW 1.4 km/h 6.4 km/h 76% 0.0 mm 53 W/m2
13:24 9.2 °C 5.2 °C 1029.5 hPa NW 1.4 km/h 6.4 km/h 76% 0.0 mm 53 W/m2
13:29 9.2 °C 5.2 °C 1029.5 hPa WNW 4.7 km/h 11.3 km/h 76% 0.0 mm 113 W/m2
13:34 9.2 °C 5.2 °C 1029.5 hPa WNW 3.2 km/h 6.4 km/h 76% 0.0 mm 58 W/m2
13:39 9.2 °C 5.4 °C 1029.5 hPa West 6.4 km/h 14.5 km/h 77% 0.0 mm 49 W/m2
13:44 9.1 °C 5.3 °C 1029.5 hPa NW 14.3 km/h 14.5 km/h 77% 0.0 mm 104 W/m2
13:49 9.1 °C 5.3 °C 1029.1 hPa West 4.7 km/h 9.7 km/h 77% 0.0 mm 54 W/m2
13:54 9 °C 5.2 °C 1029.1 hPa WNW 3.2 km/h 9.7 km/h 77% 0.0 mm 40 W/m2
13:59 9.1 °C 5.3 °C 1029.1 hPa West 4.7 km/h 9.7 km/h 77% 0.0 mm 33 W/m2
14:04 9.1 °C 5.5 °C 1029.1 hPa West 4.7 km/h 6.4 km/h 78% 0.0 mm 33 W/m2
14:09 9 °C 5.6 °C 1029.1 hPa West 4.7 km/h 12.9 km/h 79% 0.0 mm 35 W/m2
14:14 9 °C 5.6 °C 1029.1 hPa WNW 6.4 km/h 6.4 km/h 79% 0.0 mm 33 W/m2
14:19 9 °C 5.7 °C 1029.1 hPa West 3.2 km/h 4.8 km/h 80% 0.0 mm 33 W/m2
14:24 9 °C 5.7 °C 1029.1 hPa West 3.2 km/h 4.8 km/h 80% 0.0 mm 32 W/m2
14:29 8.9 °C 5.6 °C 1028.8 hPa WSW 3.2 km/h 9.7 km/h 80% 0.0 mm 35 W/m2
14:34 8.9 °C 5.6 °C 1028.8 hPa West 1.4 km/h 4.8 km/h 80% 0.0 mm 32 W/m2
14:39 8.9 °C 5.6 °C 1028.5 hPa West 4.7 km/h 4.8 km/h 80% 0.0 mm 30 W/m2
14:44 8.9 °C 5.6 °C 1028.5 hPa NW 4.7 km/h 6.4 km/h 80% 0.0 mm 32 W/m2
14:49 8.9 °C 5.6 °C 1028.5 hPa West 1.4 km/h 1.6 km/h 80% 0.0 mm 28 W/m2
14:54 8.9 °C 5.6 °C 1028.5 hPa WNW 3.2 km/h 6.4 km/h 80% 0.0 mm 28 W/m2
14:59 8.8 °C 5.5 °C 1028.5 hPa WNW 4.7 km/h 6.4 km/h 80% 0.0 mm 28 W/m2
15:04 8.9 °C 5.5 °C 1028.5 hPa West 1.4 km/h 11.3 km/h 79% 0.0 mm 28 W/m2
15:09 8.8 °C 5.5 °C 1028.1 hPa Calm   4.8 km/h 80% 0.0 mm 28 W/m2
15:14 8.8 °C 5.5 °C 1028.1 hPa West 1.4 km/h 11.3 km/h 80% 0.0 mm 28 W/m2
15:19 8.8 °C 5.5 °C 1028.1 hPa Calm   3.2 km/h 80% 0.0 mm 28 W/m2
15:24 8.7 °C 5.6 °C 1028.1 hPa Calm     81% 0.0 mm 26 W/m2
15:29 8.7 °C 5.8 °C 1028.1 hPa West 1.4 km/h 3.2 km/h 82% 0.0 mm 25 W/m2
15:34 8.5 °C 5.8 °C 1028.1 hPa West 1.4 km/h 11.3 km/h 83% 0.0 mm 25 W/m2
15:39 8.5 °C 5.6 °C 1028.1 hPa West 3.2 km/h 4.8 km/h 82% 0.0 mm 25 W/m2
15:44 8.6 °C 5.9 °C 1028.1 hPa Calm   1.6 km/h 83% 0.0 mm 23 W/m2
15:49 8.5 °C 5.8 °C 1027.8 hPa WNW 1.4 km/h 4.8 km/h 83% 0.0 mm 23 W/m2
15:54 8.4 °C 5.7 °C 1027.8 hPa WNW 1.4 km/h 3.2 km/h 83% 0.0 mm 21 W/m2
15:59 8.3 °C 5.8 °C 1027.8 hPa Calm   4.8 km/h 84% 0.0 mm 21 W/m2
16:04 8.2 °C 5.7 °C 1027.8 hPa WNW 1.4 km/h 6.4 km/h 84% 0.0 mm 21 W/m2
16:09 8.2 °C 5.5 °C 1027.8 hPa West 1.4 km/h 6.4 km/h 83% 0.0 mm 21 W/m2
16:14 8.2 °C 5.7 °C 1027.8 hPa Calm   1.6 km/h 84% 0.0 mm 19 W/m2
16:19 8.1 °C 5.6 °C 1027.8 hPa Calm   6.4 km/h 84% 0.0 mm 18 W/m2
16:24 7.9 °C 5.4 °C 1027.8 hPa Calm   1.6 km/h 84% 0.0 mm 16 W/m2
16:29 7.7 °C 5.3 °C 1027.8 hPa West 1.4 km/h 4.8 km/h 85% 0.0 mm 16 W/m2
16:34 7.6 °C 5.2 °C 1027.8 hPa Calm   3.2 km/h 85% 0.0 mm 16 W/m2
16:39 7.4 °C 5.2 °C 1027.8 hPa Calm   4.8 km/h 86% 0.0 mm 14 W/m2
16:44 7.3 °C 5.1 °C 1027.8 hPa Calm     86% 0.0 mm 12 W/m2
16:49 7.2 °C 5.2 °C 1027.8 hPa Calm     87% 0.0 mm 9 W/m2
16:54 7 °C 5 °C 1027.4 hPa Calm     87% 0.0 mm 7 W/m2
16:59 6.8 °C 5 °C 1027.4 hPa Calm     88% 0.0 mm 5 W/m2
17:04 6.7 °C 4.9 °C 1027.4 hPa Calm     88% 0.0 mm 0 W/m2
17:09 6.6 °C 4.9 °C 1027.4 hPa Calm     89% 0.0 mm 0 W/m2
17:14 6.3 °C 4.6 °C 1027.4 hPa Calm   1.6 km/h 89% 0.0 mm 0 W/m2
17:19 6.2 °C 4.5 °C 1027.4 hPa Calm     89% 0.0 mm 0 W/m2
17:24 6.2 °C 4.7 °C 1027.4 hPa West 3.2 km/h 3.2 km/h 90% 0.0 mm 0 W/m2
17:29 6.1 °C 4.7 °C 1027.4 hPa Calm     91% 0.0 mm 0 W/m2
17:34 6.1 °C 4.7 °C 1027.4 hPa Calm   1.6 km/h 91% 0.0 mm 0 W/m2
17:39 6 °C 4.6 °C 1027.4 hPa Calm     91% 0.0 mm 0 W/m2
17:44 5.9 °C 4.5 °C 1027.4 hPa Calm     91% 0.0 mm 0 W/m2
17:49 5.8 °C 4.4 °C 1027.4 hPa Calm     91% 0.0 mm 0 W/m2
17:54 5.7 °C 4.3 °C 1027.4 hPa Calm     91% 0.0 mm 0 W/m2
17:59 5.7 °C 4.5 °C 1027.4 hPa Calm     92% 0.0 mm 0 W/m2
18:04 5.6 °C 4.4 °C 1027.4 hPa Calm     92% 0.0 mm 0 W/m2
18:09 5.5 °C 4.3 °C 1027.4 hPa Calm     92% 0.0 mm 0 W/m2
18:14 5.3 °C 4.1 °C 1027.4 hPa Calm     92% 0.0 mm 0 W/m2
18:19 5.3 °C 4.1 °C 1027.8 hPa Calm     92% 0.0 mm 0 W/m2
18:24 5.2 °C 4 °C 1027.8 hPa Calm     92% 0.0 mm 0 W/m2
18:29 5.1 °C 4.1 °C 1027.8 hPa Calm     93% 0.0 mm 0 W/m2
18:34 5.1 °C 4.1 °C 1027.4 hPa Calm     93% 0.0 mm 0 W/m2
18:39 5.1 °C 4.1 °C 1027.4 hPa Calm     93% 0.0 mm 0 W/m2
18:44 5.2 °C 4.3 °C 1027.4 hPa Calm   3.2 km/h 94% 0.0 mm 0 W/m2
18:49 5.2 °C 4.3 °C 1027.4 hPa Calm   1.6 km/h 94% 0.0 mm 0 W/m2
18:54 5.2 °C 4.3 °C 1027.4 hPa Calm     94% 0.0 mm 0 W/m2
18:59 5.2 °C 4.2 °C 1027.4 hPa Calm   1.6 km/h 93% 0.0 mm 0 W/m2
19:04 5.2 °C 4.2 °C 1027.4 hPa South 1.4 km/h 3.2 km/h 93% 0.0 mm 0 W/m2
19:09 5.2 °C 4.2 °C 1027.4 hPa South 3.2 km/h 3.2 km/h 93% 0.0 mm 0 W/m2
19:14 5.1 °C 4.1 °C 1027.1 hPa SE 4.7 km/h 6.4 km/h 93% 0.0 mm 0 W/m2
19:19 5.2 °C 4.2 °C 1027.1 hPa Calm   4.8 km/h 93% 0.0 mm 0 W/m2
19:24 5.3 °C 4.3 °C 1027.1 hPa Calm     93% 0.0 mm 0 W/m2
19:29 5.3 °C 4.1 °C 1027.1 hPa Calm   3.2 km/h 92% 0.0 mm 0 W/m2
19:34 5.2 °C 4 °C 1026.8 hPa SE 1.4 km/h 3.2 km/h 92% 0.0 mm 0 W/m2
19:39 5.2 °C 4 °C 1026.8 hPa Calm   3.2 km/h 92% 0.0 mm 0 W/m2
19:44 5.1 °C 3.9 °C 1026.8 hPa ESE 4.7 km/h 4.8 km/h 92% 0.0 mm 0 W/m2
19:49 5.1 °C 3.9 °C 1026.8 hPa Calm     92% 0.0 mm 0 W/m2
19:54 5.1 °C 3.9 °C 1026.4 hPa Calm     92% 0.0 mm 0 W/m2
19:59 5 °C 3.7 °C 1026.8 hPa Calm     91% 0.0 mm 0 W/m2
20:04 4.9 °C 3.6 °C 1026.8 hPa Calm     91% 0.0 mm 0 W/m2
20:09 4.8 °C 3.5 °C 1026.4 hPa Calm     91% 0.0 mm 0 W/m2
20:15 4.7 °C 3.5 °C 1026.4 hPa ESE 1.4 km/h 3.2 km/h 92% 0.0 mm 0 W/m2
20:20 4.7 °C 3.5 °C 1026.8 hPa Calm     92% 0.0 mm 0 W/m2
20:25 4.6 °C 3.4 °C 1026.4 hPa Calm   3.2 km/h 92% 0.0 mm 0 W/m2
20:30 4.6 °C 3.4 °C 1026.8 hPa Calm     92% 0.0 mm 0 W/m2
20:35 4.6 °C 3.4 °C 1026.8 hPa Calm     92% 0.0 mm 0 W/m2
20:40 4.6 °C 3.4 °C 1026.8 hPa Calm     92% 0.0 mm 0 W/m2
20:45 4.6 °C 3.4 °C 1026.8 hPa Calm     92% 0.0 mm 0 W/m2
20:50 4.4 °C 3.2 °C 1026.8 hPa Calm     92% 0.0 mm 0 W/m2
20:55 4.4 °C 3.2 °C 1026.8 hPa Calm     92% 0.0 mm 0 W/m2
21:00 4.4 °C 3.2 °C 1026.8 hPa Calm   3.2 km/h 92% 0.0 mm 0 W/m2
21:05 4.4 °C 3.2 °C 1026.8 hPa Calm   3.2 km/h 92% 0.0 mm 0 W/m2
21:10 4.5 °C 3.3 °C 1026.8 hPa Calm   3.2 km/h 92% 0.0 mm 0 W/m2
21:15 4.6 °C 3.4 °C 1026.8 hPa Calm   1.6 km/h 92% 0.0 mm 0 W/m2
21:20 4.8 °C 3.6 °C 1026.8 hPa Calm     92% 0.0 mm 0 W/m2
21:25 4.9 °C 3.6 °C 1026.8 hPa Calm   3.2 km/h 91% 0.0 mm 0 W/m2
21:30 5.1 °C 3.8 °C 1026.8 hPa Calm     91% 0.0 mm 0 W/m2
21:35 5.2 °C 3.9 °C 1026.8 hPa WSW 3.2 km/h 6.4 km/h 91% 0.0 mm 0 W/m2
21:40 5.3 °C 3.8 °C 1026.8 hPa WNW 3.2 km/h 8 km/h 90% 0.0 mm 0 W/m2
21:45 5.5 °C 3.8 °C 1026.8 hPa West 1.4 km/h 6.4 km/h 89% 0.0 mm 0 W/m2
21:50 5.6 °C 3.9 °C 1026.8 hPa Calm     89% 0.0 mm 0 W/m2
21:55 5.6 °C 3.8 °C 1026.1 hPa SE 3.2 km/h 4.8 km/h 88% 0.0 mm 0 W/m2
22:00 5.6 °C 3.8 °C 1025.7 hPa ESE 6.4 km/h 6.4 km/h 88% 0.0 mm 0 W/m2
22:05 5.4 °C 3.6 °C 1026.1 hPa Calm   1.6 km/h 88% 0.0 mm 0 W/m2
22:10 5.4 °C 3.7 °C 1026.1 hPa ESE 1.4 km/h 6.4 km/h 89% 0.0 mm 0 W/m2
22:15 5.3 °C 3.6 °C 1026.1 hPa ESE 3.2 km/h 4.8 km/h 89% 0.0 mm 0 W/m2
22:20 5.3 °C 3.6 °C 1026.4 hPa Calm     89% 0.0 mm 0 W/m2
22:25 5.2 °C 3.5 °C 1026.4 hPa Calm     89% 0.0 mm 0 W/m2
22:30 5.2 °C 3.7 °C 1026.1 hPa Calm     90% 0.0 mm 0 W/m2
22:35 5.1 °C 3.6 °C 1026.4 hPa WNW 1.4 km/h 6.4 km/h 90% 0.0 mm 0 W/m2
22:40 5.2 °C 3.7 °C 1026.1 hPa South 3.2 km/h 4.8 km/h 90% 0.0 mm 0 W/m2
22:45 5.1 °C 3.8 °C 1026.1 hPa Calm   3.2 km/h 91% 0.0 mm 0 W/m2
22:50 5.2 °C 3.9 °C 1026.1 hPa Calm   1.6 km/h 91% 0.0 mm 0 W/m2
22:55 5.1 °C 3.8 °C 1025.7 hPa Calm   1.6 km/h 91% 0.0 mm 0 W/m2
23:00 5.1 °C 3.6 °C 1025.7 hPa Calm   4.8 km/h 90% 0.0 mm 0 W/m2
23:05 5.1 °C 3.8 °C 1025.4 hPa Calm   1.6 km/h 91% 0.0 mm 0 W/m2
23:10 5 °C 3.7 °C 1025.7 hPa SW 1.4 km/h 6.4 km/h 91% 0.0 mm 0 W/m2
23:15 5 °C 3.5 °C 1025.7 hPa ESE 1.4 km/h 3.2 km/h 90% 0.0 mm 0 W/m2
23:20 4.9 °C 3.4 °C 1025.7 hPa Calm   6.4 km/h 90% 0.0 mm 0 W/m2
23:25 4.9 °C 3.4 °C 1025.4 hPa WSW 3.2 km/h 4.8 km/h 90% 0.0 mm 0 W/m2
23:30 4.8 °C 3.3 °C 1025.4 hPa SW 1.4 km/h 6.4 km/h 90% 0.0 mm 0 W/m2
23:35 4.8 °C 3.3 °C 1025.7 hPa West 1.4 km/h 1.6 km/h 90% 0.0 mm 0 W/m2
23:40 4.7 °C 3.2 °C 1025.4 hPa NW 1.4 km/h 1.6 km/h 90% 0.0 mm 0 W/m2
23:45 4.6 °C 3.1 °C 1025.7 hPa Calm     90% 0.0 mm 0 W/m2
23:50 4.6 °C 3.3 °C 1025.7 hPa Calm   1.6 km/h 91% 0.0 mm 0 W/m2
23:56 4.5 °C 3.2 °C 1025.7 hPa Calm   8 km/h 91% 0.0 mm 0 W/m2
Juneau County Weather
Compliments of Weather Underground - 4 mb